Somersworth, New Hampshire
Current Conditions -  °F | °C
As of 3:51 AM on Thursday 23 Oct 2014 (Local Time) from KDAW Reporting Station
Light Rain Light Rain  
Wind Chill: 40°   Ceiling: 800
Heat Index: 47°   Visibility: 3mi
Dew Point: 45°   Wind: 18mph
Humidity: 93%   Direction: 10°N
Pressure: 29.81"   Gusts: 28mph
Location:  43.26°N, 70.86°W
Report Text: KDAW 230751Z AUTO 01016G24KT 3SM -RA BR OVC008 08/07 A2981 RMK AO2 PK WND 36026/0715 CIG 006V012 SLP093 P0001 T00830072
Loading
Personal Weather Stations






























Interactive Weather Map
Tropical Storm Tracking
New forecast layout! Learn more

10-Day Weather Forecast

Advertisements
Track Severe Weather on mobile